sensor_id;sensor_type;location;lat;lon;timestamp;P1;durP1;ratioP1;P2;durP2;ratioP2
4831;SDS011;2430;51.322;7.864;2023-08-31T00:01:14;19.77;;;13.40;;
4831;SDS011;2430;51.322;7.864;2023-08-31T00:03:41;15.80;;;11.87;;
4831;SDS011;2430;51.322;7.864;2023-08-31T00:06:07;20.20;;;12.27;;
4831;SDS011;2430;51.322;7.864;2023-08-31T00:08:33;20.43;;;13.57;;
4831;SDS011;2430;51.322;7.864;2023-08-31T00:11:00;17.70;;;12.97;;
4831;SDS011;2430;51.322;7.864;2023-08-31T00:13:26;20.60;;;12.63;;
4831;SDS011;2430;51.322;7.864;2023-08-31T00:15:55;16.87;;;11.47;;
4831;SDS011;2430;51.322;7.864;2023-08-31T00:18:22;17.30;;;12.10;;
4831;SDS011;2430;51.322;7.864;2023-08-31T00:20:49;16.27;;;11.30;;
4831;SDS011;2430;51.322;7.864;2023-08-31T00:23:15;21.47;;;12.50;;
4831;SDS011;2430;51.322;7.864;2023-08-31T00:25:41;26.97;;;13.27;;
4831;SDS011;2430;51.322;7.864;2023-08-31T00:28:08;18.63;;;11.70;;
4831;SDS011;2430;51.322;7.864;2023-08-31T00:30:34;18.17;;;11.47;;
4831;SDS011;2430;51.322;7.864;2023-08-31T00:33:02;18.00;;;12.07;;
4831;SDS011;2430;51.322;7.864;2023-08-31T00:35:29;19.20;;;10.73;;
4831;SDS011;2430;51.322;7.864;2023-08-31T00:37:55;15.80;;;10.87;;
4831;SDS011;2430;51.322;7.864;2023-08-31T00:40:23;24.33;;;11.40;;
4831;SDS011;2430;51.322;7.864;2023-08-31T00:42:49;17.03;;;10.23;;
4831;SDS011;2430;51.322;7.864;2023-08-31T00:45:16;16.13;;;10.47;;
4831;SDS011;2430;51.322;7.864;2023-08-31T00:47:44;13.77;;;9.80;;
4831;SDS011;2430;51.322;7.864;2023-08-31T00:50:12;15.27;;;9.10;;
4831;SDS011;2430;51.322;7.864;2023-08-31T00:52:38;15.03;;;9.23;;
4831;SDS011;2430;51.322;7.864;2023-08-31T00:55:05;13.87;;;8.90;;
4831;SDS011;2430;51.322;7.864;2023-08-31T00:57:33;14.57;;;8.87;;
4831;SDS011;2430;51.322;7.864;2023-08-31T01:00:00;15.07;;;8.70;;
4831;SDS011;2430;51.322;7.864;2023-08-31T01:02:29;21.05;;;9.30;;
4831;SDS011;2430;51.322;7.864;2023-08-31T01:04:57;19.40;;;9.67;;
4831;SDS011;2430;51.322;7.864;2023-08-31T01:07:28;17.97;;;10.30;;
4831;SDS011;2430;51.322;7.864;2023-08-31T01:10:00;26.27;;;9.70;;
4831;SDS011;2430;51.322;7.864;2023-08-31T01:12:36;14.63;;;9.50;;
4831;SDS011;2430;51.322;7.864;2023-08-31T01:15:06;20.80;;;9.17;;
4831;SDS011;2430;51.322;7.864;2023-08-31T01:17:33;13.43;;;8.37;;
4831;SDS011;2430;51.322;7.864;2023-08-31T01:20:02;15.50;;;9.47;;
4831;SDS011;2430;51.322;7.864;2023-08-31T01:22:37;16.03;;;9.10;;
4831;SDS011;2430;51.322;7.864;2023-08-31T01:25:07;14.67;;;8.60;;
4831;SDS011;2430;51.322;7.864;2023-08-31T01:27:34;12.53;;;8.40;;
4831;SDS011;2430;51.322;7.864;2023-08-31T01:30:00;19.63;;;9.17;;
4831;SDS011;2430;51.322;7.864;2023-08-31T01:32:28;16.40;;;8.30;;
4831;SDS011;2430;51.322;7.864;2023-08-31T01:34:54;15.30;;;8.20;;
4831;SDS011;2430;51.322;7.864;2023-08-31T01:37:24;15.20;;;8.83;;
4831;SDS011;2430;51.322;7.864;2023-08-31T01:39:54;14.57;;;8.50;;
4831;SDS011;2430;51.322;7.864;2023-08-31T01:42:23;17.63;;;8.83;;
4831;SDS011;2430;51.322;7.864;2023-08-31T01:44:51;16.23;;;8.00;;
4831;SDS011;2430;51.322;7.864;2023-08-31T01:47:18;14.40;;;8.90;;
4831;SDS011;2430;51.322;7.864;2023-08-31T01:49:46;18.17;;;8.20;;
4831;SDS011;2430;51.322;7.864;2023-08-31T01:52:12;11.70;;;7.97;;
4831;SDS011;2430;51.322;7.864;2023-08-31T01:54:39;12.30;;;7.50;;
4831;SDS011;2430;51.322;7.864;2023-08-31T01:57:06;10.90;;;6.90;;
4831;SDS011;2430;51.322;7.864;2023-08-31T01:59:34;17.00;;;7.80;;
4831;SDS011;2430;51.322;7.864;2023-08-31T02:02:01;12.10;;;7.13;;
4831;SDS011;2430;51.322;7.864;2023-08-31T02:04:29;12.30;;;7.80;;
4831;SDS011;2430;51.322;7.864;2023-08-31T02:06:57;11.70;;;8.20;;
4831;SDS011;2430;51.322;7.864;2023-08-31T02:09:24;16.40;;;7.10;;
4831;SDS011;2430;51.322;7.864;2023-08-31T02:11:50;9.57;;;7.10;;
4831;SDS011;2430;51.322;7.864;2023-08-31T02:14:18;10.10;;;7.40;;
4831;SDS011;2430;51.322;7.864;2023-08-31T02:16:46;11.97;;;7.97;;
4831;SDS011;2430;51.322;7.864;2023-08-31T02:19:13;17.33;;;7.40;;
4831;SDS011;2430;51.322;7.864;2023-08-31T02:21:39;12.37;;;7.80;;
4831;SDS011;2430;51.322;7.864;2023-08-31T02:24:06;13.10;;;8.73;;
4831;SDS011;2430;51.322;7.864;2023-08-31T02:26:34;16.90;;;10.40;;
4831;SDS011;2430;51.322;7.864;2023-08-31T02:29:01;11.50;;;8.83;;
4831;SDS011;2430;51.322;7.864;2023-08-31T02:31:28;22.00;;;10.53;;
4831;SDS011;2430;51.322;7.864;2023-08-31T02:33:56;14.80;;;9.67;;
4831;SDS011;2430;51.322;7.864;2023-08-31T02:36:23;13.17;;;10.33;;
4831;SDS011;2430;51.322;7.864;2023-08-31T02:38:50;17.00;;;10.23;;
4831;SDS011;2430;51.322;7.864;2023-08-31T02:41:16;20.90;;;12.13;;
4831;SDS011;2430;51.322;7.864;2023-08-31T02:43:43;22.20;;;11.93;;
4831;SDS011;2430;51.322;7.864;2023-08-31T02:46:10;17.00;;;12.30;;
4831;SDS011;2430;51.322;7.864;2023-08-31T02:48:37;16.47;;;12.10;;
4831;SDS011;2430;51.322;7.864;2023-08-31T02:51:06;17.60;;;12.97;;
4831;SDS011;2430;51.322;7.864;2023-08-31T02:53:32;16.40;;;11.73;;
4831;SDS011;2430;51.322;7.864;2023-08-31T02:55:59;12.83;;;11.40;;
4831;SDS011;2430;51.322;7.864;2023-08-31T02:58:33;22.80;;;11.47;;
4831;SDS011;2430;51.322;7.864;2023-08-31T03:01:09;22.43;;;12.00;;
4831;SDS011;2430;51.322;7.864;2023-08-31T03:03:37;15.03;;;11.20;;
4831;SDS011;2430;51.322;7.864;2023-08-31T03:06:06;15.93;;;12.57;;
4831;SDS011;2430;51.322;7.864;2023-08-31T03:08:33;19.00;;;13.17;;
4831;SDS011;2430;51.322;7.864;2023-08-31T03:11:00;18.83;;;13.87;;
4831;SDS011;2430;51.322;7.864;2023-08-31T03:13:26;19.80;;;13.53;;
4831;SDS011;2430;51.322;7.864;2023-08-31T03:15:53;20.87;;;14.30;;
4831;SDS011;2430;51.322;7.864;2023-08-31T03:18:19;19.03;;;14.27;;
4831;SDS011;2430;51.322;7.864;2023-08-31T03:20:46;24.13;;;15.53;;
4831;SDS011;2430;51.322;7.864;2023-08-31T03:23:14;18.60;;;14.67;;
4831;SDS011;2430;51.322;7.864;2023-08-31T03:25:40;22.30;;;15.47;;
4831;SDS011;2430;51.322;7.864;2023-08-31T03:28:07;24.90;;;15.40;;
4831;SDS011;2430;51.322;7.864;2023-08-31T03:30:35;25.00;;;16.20;;
4831;SDS011;2430;51.322;7.864;2023-08-31T03:33:01;29.90;;;17.17;;
4831;SDS011;2430;51.322;7.864;2023-08-31T03:35:28;25.97;;;16.70;;
4831;SDS011;2430;51.322;7.864;2023-08-31T03:37:55;22.97;;;16.30;;
4831;SDS011;2430;51.322;7.864;2023-08-31T03:40:23;22.03;;;16.00;;
4831;SDS011;2430;51.322;7.864;2023-08-31T03:42:50;24.97;;;15.50;;
4831;SDS011;2430;51.322;7.864;2023-08-31T03:45:17;21.70;;;13.20;;
4831;SDS011;2430;51.322;7.864;2023-08-31T03:47:44;20.67;;;13.43;;
4831;SDS011;2430;51.322;7.864;2023-08-31T03:50:11;17.73;;;12.97;;
4831;SDS011;2430;51.322;7.864;2023-08-31T03:52:38;18.70;;;12.10;;
4831;SDS011;2430;51.322;7.864;2023-08-31T03:55:04;20.33;;;13.00;;
4831;SDS011;2430;51.322;7.864;2023-08-31T03:57:33;18.80;;;11.90;;
4831;SDS011;2430;51.322;7.864;2023-08-31T03:59:59;16.00;;;10.97;;
4831;SDS011;2430;51.322;7.864;2023-08-31T04:02:28;18.47;;;11.30;;
4831;SDS011;2430;51.322;7.864;2023-08-31T04:04:56;13.80;;;12.07;;
4831;SDS011;2430;51.322;7.864;2023-08-31T04:07:24;13.97;;;11.40;;
4831;SDS011;2430;51.322;7.864;2023-08-31T04:09:50;19.60;;;11.13;;
4831;SDS011;2430;51.322;7.864;2023-08-31T04:12:17;16.30;;;11.00;;
4831;SDS011;2430;51.322;7.864;2023-08-31T04:14:45;20.00;;;12.23;;
4831;SDS011;2430;51.322;7.864;2023-08-31T04:17:11;14.17;;;10.57;;
4831;SDS011;2430;51.322;7.864;2023-08-31T04:19:38;12.70;;;10.47;;
4831;SDS011;2430;51.322;7.864;2023-08-31T04:22:05;13.53;;;10.37;;
4831;SDS011;2430;51.322;7.864;2023-08-31T04:24:31;13.97;;;10.50;;
4831;SDS011;2430;51.322;7.864;2023-08-31T04:26:58;18.13;;;11.60;;
4831;SDS011;2430;51.322;7.864;2023-08-31T04:29:24;14.87;;;11.00;;
4831;SDS011;2430;51.322;7.864;2023-08-31T04:31:52;14.13;;;11.30;;
4831;SDS011;2430;51.322;7.864;2023-08-31T04:34:19;14.80;;;11.00;;
4831;SDS011;2430;51.322;7.864;2023-08-31T04:36:45;15.47;;;9.97;;
4831;SDS011;2430;51.322;7.864;2023-08-31T04:39:13;15.50;;;11.10;;
4831;SDS011;2430;51.322;7.864;2023-08-31T04:41:39;12.70;;;9.57;;
4831;SDS011;2430;51.322;7.864;2023-08-31T04:44:06;13.93;;;10.07;;
4831;SDS011;2430;51.322;7.864;2023-08-31T04:46:32;20.33;;;10.80;;
4831;SDS011;2430;51.322;7.864;2023-08-31T04:49:00;14.13;;;9.97;;
4831;SDS011;2430;51.322;7.864;2023-08-31T04:51:29;12.00;;;10.00;;
4831;SDS011;2430;51.322;7.864;2023-08-31T04:53:56;14.87;;;9.77;;
4831;SDS011;2430;51.322;7.864;2023-08-31T04:56:22;12.67;;;9.83;;
4831;SDS011;2430;51.322;7.864;2023-08-31T04:58:49;21.00;;;10.70;;
4831;SDS011;2430;51.322;7.864;2023-08-31T05:01:15;15.23;;;10.03;;
4831;SDS011;2430;51.322;7.864;2023-08-31T05:03:42;15.97;;;10.40;;
4831;SDS011;2430;51.322;7.864;2023-08-31T05:06:09;14.80;;;10.93;;
4831;SDS011;2430;51.322;7.864;2023-08-31T05:08:35;23.23;;;11.10;;
4831;SDS011;2430;51.322;7.864;2023-08-31T05:11:02;13.30;;;10.37;;
4831;SDS011;2430;51.322;7.864;2023-08-31T05:13:28;14.87;;;11.33;;
4831;SDS011;2430;51.322;7.864;2023-08-31T05:15:55;15.23;;;11.03;;
4831;SDS011;2430;51.322;7.864;2023-08-31T05:18:23;12.77;;;11.20;;
4831;SDS011;2430;51.322;7.864;2023-08-31T05:20:49;14.83;;;11.40;;
4831;SDS011;2430;51.322;7.864;2023-08-31T05:23:17;12.50;;;10.60;;
4831;SDS011;2430;51.322;7.864;2023-08-31T05:25:43;15.23;;;10.43;;
4831;SDS011;2430;51.322;7.864;2023-08-31T05:28:09;12.93;;;10.10;;
4831;SDS011;2430;51.322;7.864;2023-08-31T05:30:35;14.80;;;10.43;;
4831;SDS011;2430;51.322;7.864;2023-08-31T05:33:02;16.50;;;10.60;;
4831;SDS011;2430;51.322;7.864;2023-08-31T05:35:32;12.90;;;10.00;;
4831;SDS011;2430;51.322;7.864;2023-08-31T05:37:58;15.80;;;10.63;;
4831;SDS011;2430;51.322;7.864;2023-08-31T05:40:26;19.03;;;10.60;;
4831;SDS011;2430;51.322;7.864;2023-08-31T05:42:52;16.70;;;8.23;;
4831;SDS011;2430;51.322;7.864;2023-08-31T05:45:18;11.60;;;8.60;;
4831;SDS011;2430;51.322;7.864;2023-08-31T05:47:45;16.53;;;9.43;;
4831;SDS011;2430;51.322;7.864;2023-08-31T05:50:11;12.80;;;9.10;;
4831;SDS011;2430;51.322;7.864;2023-08-31T05:52:38;15.90;;;8.63;;
4831;SDS011;2430;51.322;7.864;2023-08-31T05:55:08;11.63;;;8.80;;
4831;SDS011;2430;51.322;7.864;2023-08-31T05:57:36;11.27;;;8.47;;
4831;SDS011;2430;51.322;7.864;2023-08-31T06:00:03;14.23;;;8.97;;
4831;SDS011;2430;51.322;7.864;2023-08-31T06:02:32;10.93;;;8.33;;
4831;SDS011;2430;51.322;7.864;2023-08-31T06:04:58;15.27;;;8.80;;
4831;SDS011;2430;51.322;7.864;2023-08-31T06:07:24;13.17;;;8.80;;
4831;SDS011;2430;51.322;7.864;2023-08-31T06:09:51;15.33;;;9.00;;
4831;SDS011;2430;51.322;7.864;2023-08-31T06:12:17;14.73;;;7.83;;
4831;SDS011;2430;51.322;7.864;2023-08-31T06:14:45;10.63;;;8.07;;
4831;SDS011;2430;51.322;7.864;2023-08-31T06:17:11;16.10;;;8.50;;
4831;SDS011;2430;51.322;7.864;2023-08-31T06:19:38;10.20;;;7.60;;
4831;SDS011;2430;51.322;7.864;2023-08-31T06:22:04;13.43;;;7.93;;
4831;SDS011;2430;51.322;7.864;2023-08-31T06:24:30;14.90;;;8.63;;
4831;SDS011;2430;51.322;7.864;2023-08-31T06:26:57;14.13;;;8.53;;
4831;SDS011;2430;51.322;7.864;2023-08-31T06:29:23;10.40;;;7.70;;
4831;SDS011;2430;51.322;7.864;2023-08-31T06:31:51;11.77;;;7.97;;
4831;SDS011;2430;51.322;7.864;2023-08-31T06:34:17;11.43;;;8.20;;
4831;SDS011;2430;51.322;7.864;2023-08-31T06:36:44;14.13;;;7.63;;
4831;SDS011;2430;51.322;7.864;2023-08-31T06:39:10;15.30;;;8.00;;
4831;SDS011;2430;51.322;7.864;2023-08-31T06:41:36;14.27;;;7.90;;
4831;SDS011;2430;51.322;7.864;2023-08-31T06:44:03;8.97;;;6.50;;
4831;SDS011;2430;51.322;7.864;2023-08-31T06:46:30;11.33;;;5.97;;
4831;SDS011;2430;51.322;7.864;2023-08-31T06:49:00;10.63;;;5.77;;
4831;SDS011;2430;51.322;7.864;2023-08-31T06:51:26;7.90;;;5.87;;
4831;SDS011;2430;51.322;7.864;2023-08-31T06:53:52;9.40;;;5.30;;
4831;SDS011;2430;51.322;7.864;2023-08-31T06:56:19;8.90;;;5.50;;
4831;SDS011;2430;51.322;7.864;2023-08-31T06:58:45;8.87;;;5.20;;
4831;SDS011;2430;51.322;7.864;2023-08-31T07:01:12;5.03;;;4.40;;
4831;SDS011;2430;51.322;7.864;2023-08-31T07:03:38;7.57;;;4.60;;
4831;SDS011;2430;51.322;7.864;2023-08-31T07:06:06;8.70;;;5.47;;
4831;SDS011;2430;51.322;7.864;2023-08-31T07:08:32;12.07;;;5.50;;
4831;SDS011;2430;51.322;7.864;2023-08-31T07:10:58;15.83;;;5.70;;
4831;SDS011;2430;51.322;7.864;2023-08-31T07:13:25;10.30;;;5.30;;
4831;SDS011;2430;51.322;7.864;2023-08-31T07:15:51;5.43;;;4.93;;
4831;SDS011;2430;51.322;7.864;2023-08-31T07:18:17;6.87;;;5.20;;
4831;SDS011;2430;51.322;7.864;2023-08-31T07:20:45;6.97;;;4.90;;
4831;SDS011;2430;51.322;7.864;2023-08-31T07:23:13;7.97;;;5.53;;
4831;SDS011;2430;51.322;7.864;2023-08-31T07:25:40;7.20;;;5.10;;
4831;SDS011;2430;51.322;7.864;2023-08-31T07:28:07;5.80;;;4.40;;
4831;SDS011;2430;51.322;7.864;2023-08-31T07:30:33;8.33;;;4.60;;
4831;SDS011;2430;51.322;7.864;2023-08-31T07:32:59;7.30;;;4.50;;
4831;SDS011;2430;51.322;7.864;2023-08-31T07:35:28;7.43;;;3.77;;
4831;SDS011;2430;51.322;7.864;2023-08-31T07:37:54;9.40;;;4.07;;
4831;SDS011;2430;51.322;7.864;2023-08-31T07:40:22;4.10;;;3.23;;
4831;SDS011;2430;51.322;7.864;2023-08-31T07:42:48;5.30;;;3.70;;
4831;SDS011;2430;51.322;7.864;2023-08-31T07:45:16;9.17;;;3.77;;
4831;SDS011;2430;51.322;7.864;2023-08-31T07:47:42;5.00;;;3.63;;
4831;SDS011;2430;51.322;7.864;2023-08-31T07:50:09;3.87;;;3.27;;
4831;SDS011;2430;51.322;7.864;2023-08-31T07:52:35;3.83;;;3.10;;
4831;SDS011;2430;51.322;7.864;2023-08-31T07:55:02;7.20;;;3.80;;
4831;SDS011;2430;51.322;7.864;2023-08-31T07:57:30;6.73;;;3.63;;
4831;SDS011;2430;51.322;7.864;2023-08-31T07:59:56;8.07;;;3.53;;
4831;SDS011;2430;51.322;7.864;2023-08-31T08:02:24;8.43;;;3.60;;
4831;SDS011;2430;51.322;7.864;2023-08-31T08:04:50;8.27;;;3.17;;
4831;SDS011;2430;51.322;7.864;2023-08-31T08:07:16;7.20;;;3.63;;
4831;SDS011;2430;51.322;7.864;2023-08-31T08:09:43;3.80;;;2.73;;
4831;SDS011;2430;51.322;7.864;2023-08-31T08:12:09;3.23;;;2.93;;
4831;SDS011;2430;51.322;7.864;2023-08-31T08:14:37;5.20;;;3.10;;
4831;SDS011;2430;51.322;7.864;2023-08-31T08:17:03;5.30;;;2.93;;
4831;SDS011;2430;51.322;7.864;2023-08-31T08:19:29;3.03;;;2.73;;
4831;SDS011;2430;51.322;7.864;2023-08-31T08:21:56;3.40;;;2.57;;
4831;SDS011;2430;51.322;7.864;2023-08-31T08:24:22;2.90;;;2.47;;
4831;SDS011;2430;51.322;7.864;2023-08-31T08:26:48;3.10;;;2.50;;
4831;SDS011;2430;51.322;7.864;2023-08-31T08:29:15;5.20;;;2.13;;
4831;SDS011;2430;51.322;7.864;2023-08-31T08:31:42;5.90;;;2.20;;
4831;SDS011;2430;51.322;7.864;2023-08-31T08:34:09;8.07;;;2.50;;
4831;SDS011;2430;51.322;7.864;2023-08-31T08:36:35;3.33;;;2.07;;
4831;SDS011;2430;51.322;7.864;2023-08-31T08:39:01;6.70;;;2.13;;
4831;SDS011;2430;51.322;7.864;2023-08-31T08:41:28;2.73;;;1.77;;
4831;SDS011;2430;51.322;7.864;2023-08-31T08:43:55;8.07;;;1.67;;
4831;SDS011;2430;51.322;7.864;2023-08-31T08:46:22;5.33;;;1.93;;
4831;SDS011;2430;51.322;7.864;2023-08-31T08:48:50;2.43;;;1.90;;
4831;SDS011;2430;51.322;7.864;2023-08-31T08:51:17;3.40;;;2.20;;
4831;SDS011;2430;51.322;7.864;2023-08-31T08:53:43;2.37;;;2.00;;
4831;SDS011;2430;51.322;7.864;2023-08-31T08:56:09;2.10;;;1.77;;
4831;SDS011;2430;51.322;7.864;2023-08-31T08:58:36;2.77;;;1.60;;
4831;SDS011;2430;51.322;7.864;2023-08-31T09:01:02;2.17;;;1.63;;
4831;SDS011;2430;51.322;7.864;2023-08-31T09:03:30;2.87;;;1.80;;
4831;SDS011;2430;51.322;7.864;2023-08-31T09:06:00;2.80;;;1.33;;
4831;SDS011;2430;51.322;7.864;2023-08-31T09:08:28;2.07;;;1.40;;
4831;SDS011;2430;51.322;7.864;2023-08-31T09:10:55;4.20;;;1.40;;
4831;SDS011;2430;51.322;7.864;2023-08-31T09:13:21;2.00;;;1.20;;
4831;SDS011;2430;51.322;7.864;2023-08-31T09:15:51;1.93;;;1.40;;
4831;SDS011;2430;51.322;7.864;2023-08-31T09:18:22;3.27;;;1.80;;
4831;SDS011;2430;51.322;7.864;2023-08-31T09:20:49;5.40;;;1.50;;
4831;SDS011;2430;51.322;7.864;2023-08-31T09:23:17;2.47;;;1.43;;
4831;SDS011;2430;51.322;7.864;2023-08-31T09:25:44;2.57;;;1.40;;
4831;SDS011;2430;51.322;7.864;2023-08-31T09:28:11;2.87;;;1.47;;
4831;SDS011;2430;51.322;7.864;2023-08-31T09:30:38;10.17;;;1.60;;
4831;SDS011;2430;51.322;7.864;2023-08-31T09:33:05;2.30;;;1.40;;
4831;SDS011;2430;51.322;7.864;2023-08-31T09:35:32;4.20;;;2.07;;
4831;SDS011;2430;51.322;7.864;2023-08-31T09:37:58;4.40;;;1.50;;
4831;SDS011;2430;51.322;7.864;2023-08-31T09:40:26;4.10;;;1.70;;
4831;SDS011;2430;51.322;7.864;2023-08-31T09:42:52;3.07;;;1.77;;
4831;SDS011;2430;51.322;7.864;2023-08-31T09:45:23;3.47;;;1.83;;
4831;SDS011;2430;51.322;7.864;2023-08-31T09:47:51;5.77;;;1.73;;
4831;SDS011;2430;51.322;7.864;2023-08-31T09:50:17;3.30;;;1.80;;
4831;SDS011;2430;51.322;7.864;2023-08-31T09:52:45;4.67;;;1.50;;
4831;SDS011;2430;51.322;7.864;2023-08-31T09:55:12;2.23;;;1.40;;
4831;SDS011;2430;51.322;7.864;2023-08-31T09:57:40;2.33;;;1.77;;
4831;SDS011;2430;51.322;7.864;2023-08-31T10:00:07;2.63;;;1.53;;
4831;SDS011;2430;51.322;7.864;2023-08-31T10:02:33;2.33;;;1.43;;
4831;SDS011;2430;51.322;7.864;2023-08-31T10:05:00;3.00;;;1.80;;
4831;SDS011;2430;51.322;7.864;2023-08-31T10:07:27;4.50;;;2.00;;
4831;SDS011;2430;51.322;7.864;2023-08-31T10:09:53;5.60;;;1.73;;
4831;SDS011;2430;51.322;7.864;2023-08-31T10:12:21;2.87;;;1.80;;
4831;SDS011;2430;51.322;7.864;2023-08-31T10:14:49;6.37;;;2.47;;
4831;SDS011;2430;51.322;7.864;2023-08-31T10:17:17;3.67;;;1.60;;
4831;SDS011;2430;51.322;7.864;2023-08-31T10:19:47;4.00;;;1.80;;
4831;SDS011;2430;51.322;7.864;2023-08-31T10:22:14;5.23;;;1.87;;
4831;SDS011;2430;51.322;7.864;2023-08-31T10:24:59;4.73;;;1.90;;
4831;SDS011;2430;51.322;7.864;2023-08-31T10:27:26;3.83;;;1.70;;
4831;SDS011;2430;51.322;7.864;2023-08-31T10:29:54;2.60;;;1.77;;
4831;SDS011;2430;51.322;7.864;2023-08-31T10:32:20;3.30;;;1.70;;
4831;SDS011;2430;51.322;7.864;2023-08-31T10:37:29;2.60;;;1.50;;
4831;SDS011;2430;51.322;7.864;2023-08-31T10:40:05;4.20;;;1.33;;
4831;SDS011;2430;51.322;7.864;2023-08-31T10:42:32;4.73;;;1.50;;
4831;SDS011;2430;51.322;7.864;2023-08-31T10:45:06;2.70;;;1.40;;
4831;SDS011;2430;51.322;7.864;2023-08-31T10:47:37;4.10;;;1.40;;
4831;SDS011;2430;51.322;7.864;2023-08-31T10:50:15;2.33;;;1.43;;
4831;SDS011;2430;51.322;7.864;2023-08-31T10:52:42;3.17;;;1.80;;
4831;SDS011;2430;51.322;7.864;2023-08-31T10:55:10;1.90;;;1.30;;
4831;SDS011;2430;51.322;7.864;2023-08-31T10:57:36;4.37;;;2.00;;
4831;SDS011;2430;51.322;7.864;2023-08-31T11:00:06;3.53;;;1.70;;
4831;SDS011;2430;51.322;7.864;2023-08-31T11:02:33;3.13;;;1.80;;
4831;SDS011;2430;51.322;7.864;2023-08-31T11:05:00;3.37;;;1.77;;
4831;SDS011;2430;51.322;7.864;2023-08-31T11:07:28;4.40;;;1.87;;
4831;SDS011;2430;51.322;7.864;2023-08-31T11:10:06;3.50;;;1.50;;
4831;SDS011;2430;51.322;7.864;2023-08-31T11:12:32;1.50;;;1.10;;
4831;SDS011;2430;51.322;7.864;2023-08-31T11:14:58;3.67;;;1.60;;
4831;SDS011;2430;51.322;7.864;2023-08-31T11:17:26;4.23;;;1.43;;
4831;SDS011;2430;51.322;7.864;2023-08-31T11:19:53;4.37;;;1.60;;
4831;SDS011;2430;51.322;7.864;2023-08-31T11:22:19;6.17;;;1.40;;
4831;SDS011;2430;51.322;7.864;2023-08-31T11:24:45;3.73;;;1.53;;
4831;SDS011;2430;51.322;7.864;2023-08-31T11:27:12;5.60;;;1.87;;
4831;SDS011;2430;51.322;7.864;2023-08-31T11:29:42;3.63;;;1.60;;
4831;SDS011;2430;51.322;7.864;2023-08-31T11:32:09;5.10;;;1.50;;
4831;SDS011;2430;51.322;7.864;2023-08-31T11:34:39;2.10;;;1.13;;
4831;SDS011;2430;51.322;7.864;2023-08-31T11:37:06;3.10;;;1.40;;
4831;SDS011;2430;51.322;7.864;2023-08-31T11:39:32;3.50;;;1.20;;
4831;SDS011;2430;51.322;7.864;2023-08-31T11:41:59;4.90;;;1.67;;
4831;SDS011;2430;51.322;7.864;2023-08-31T11:44:25;1.93;;;1.40;;
4831;SDS011;2430;51.322;7.864;2023-08-31T11:46:51;1.70;;;1.50;;
4831;SDS011;2430;51.322;7.864;2023-08-31T11:49:18;3.73;;;1.47;;
4831;SDS011;2430;51.322;7.864;2023-08-31T11:51:47;4.13;;;1.60;;
4831;SDS011;2430;51.322;7.864;2023-08-31T11:54:14;2.90;;;2.00;;
4831;SDS011;2430;51.322;7.864;2023-08-31T11:56:42;2.07;;;1.50;;
4831;SDS011;2430;51.322;7.864;2023-08-31T11:59:09;10.40;;;1.83;;
4831;SDS011;2430;51.322;7.864;2023-08-31T12:01:39;2.87;;;1.70;;
4831;SDS011;2430;51.322;7.864;2023-08-31T12:04:10;3.13;;;1.50;;
4831;SDS011;2430;51.322;7.864;2023-08-31T12:06:36;3.90;;;1.73;;
4831;SDS011;2430;51.322;7.864;2023-08-31T12:09:05;4.07;;;1.70;;
4831;SDS011;2430;51.322;7.864;2023-08-31T12:11:31;2.93;;;1.80;;
4831;SDS011;2430;51.322;7.864;2023-08-31T12:13:59;4.27;;;1.83;;
4831;SDS011;2430;51.322;7.864;2023-08-31T12:16:31;3.00;;;1.60;;
4831;SDS011;2430;51.322;7.864;2023-08-31T12:18:58;1.83;;;1.50;;
4831;SDS011;2430;51.322;7.864;2023-08-31T12:21:24;4.43;;;1.80;;
4831;SDS011;2430;51.322;7.864;2023-08-31T12:23:51;3.20;;;1.70;;
4831;SDS011;2430;51.322;7.864;2023-08-31T12:26:18;4.47;;;1.90;;
4831;SDS011;2430;51.322;7.864;2023-08-31T12:28:44;3.93;;;1.73;;
4831;SDS011;2430;51.322;7.864;2023-08-31T12:31:11;5.93;;;1.70;;
4831;SDS011;2430;51.322;7.864;2023-08-31T12:33:37;1.83;;;1.43;;
4831;SDS011;2430;51.322;7.864;2023-08-31T12:36:03;4.93;;;1.53;;
4831;SDS011;2430;51.322;7.864;2023-08-31T12:38:30;1.80;;;1.23;;
4831;SDS011;2430;51.322;7.864;2023-08-31T12:40:56;4.10;;;1.70;;
4831;SDS011;2430;51.322;7.864;2023-08-31T12:43:24;2.80;;;1.63;;
4831;SDS011;2430;51.322;7.864;2023-08-31T12:45:50;2.43;;;1.30;;
4831;SDS011;2430;51.322;7.864;2023-08-31T12:48:16;1.37;;;1.20;;
4831;SDS011;2430;51.322;7.864;2023-08-31T12:50:42;2.27;;;2.07;;
4831;SDS011;2430;51.322;7.864;2023-08-31T12:53:09;8.10;;;2.13;;
4831;SDS011;2430;51.322;7.864;2023-08-31T12:55:35;5.63;;;1.80;;
4831;SDS011;2430;51.322;7.864;2023-08-31T12:58:01;1.93;;;1.40;;
4831;SDS011;2430;51.322;7.864;2023-08-31T13:00:29;4.20;;;1.83;;
4831;SDS011;2430;51.322;7.864;2023-08-31T13:02:55;2.30;;;1.43;;
4831;SDS011;2430;51.322;7.864;2023-08-31T13:05:22;3.97;;;1.63;;
4831;SDS011;2430;51.322;7.864;2023-08-31T13:07:48;2.23;;;1.60;;
4831;SDS011;2430;51.322;7.864;2023-08-31T13:10:14;3.13;;;1.60;;
4831;SDS011;2430;51.322;7.864;2023-08-31T13:12:41;4.87;;;1.73;;
4831;SDS011;2430;51.322;7.864;2023-08-31T13:15:07;5.50;;;1.80;;
4831;SDS011;2430;51.322;7.864;2023-08-31T13:17:35;4.73;;;1.90;;
4831;SDS011;2430;51.322;7.864;2023-08-31T13:20:02;2.13;;;1.67;;
4831;SDS011;2430;51.322;7.864;2023-08-31T13:22:29;4.30;;;1.70;;
4831;SDS011;2430;51.322;7.864;2023-08-31T13:24:55;3.93;;;1.70;;
4831;SDS011;2430;51.322;7.864;2023-08-31T13:27:22;1.40;;;1.30;;
4831;SDS011;2430;51.322;7.864;2023-08-31T13:29:48;2.33;;;1.20;;
4831;SDS011;2430;51.322;7.864;2023-08-31T13:32:14;4.10;;;1.87;;
4831;SDS011;2430;51.322;7.864;2023-08-31T13:34:42;1.50;;;1.40;;
4831;SDS011;2430;51.322;7.864;2023-08-31T13:37:08;3.07;;;1.70;;
4831;SDS011;2430;51.322;7.864;2023-08-31T13:39:35;2.77;;;1.30;;
4831;SDS011;2430;51.322;7.864;2023-08-31T13:42:02;2.17;;;1.50;;
4831;SDS011;2430;51.322;7.864;2023-08-31T13:44:29;2.60;;;1.40;;
4831;SDS011;2430;51.322;7.864;2023-08-31T13:46:55;6.53;;;1.67;;
4831;SDS011;2430;51.322;7.864;2023-08-31T13:49:21;3.73;;;1.70;;
4831;SDS011;2430;51.322;7.864;2023-08-31T13:51:49;3.00;;;1.73;;
4831;SDS011;2430;51.322;7.864;2023-08-31T13:54:15;3.80;;;1.33;;
4831;SDS011;2430;51.322;7.864;2023-08-31T13:56:42;3.70;;;1.60;;
4831;SDS011;2430;51.322;7.864;2023-08-31T13:59:08;2.70;;;1.60;;
4831;SDS011;2430;51.322;7.864;2023-08-31T14:01:35;3.27;;;1.63;;
4831;SDS011;2430;51.322;7.864;2023-08-31T14:04:03;2.33;;;1.60;;
4831;SDS011;2430;51.322;7.864;2023-08-31T14:06:29;2.50;;;1.73;;
4831;SDS011;2430;51.322;7.864;2023-08-31T14:08:57;4.93;;;1.90;;
4831;SDS011;2430;51.322;7.864;2023-08-31T14:11:23;10.80;;;2.43;;
4831;SDS011;2430;51.322;7.864;2023-08-31T14:13:50;3.20;;;1.67;;
4831;SDS011;2430;51.322;7.864;2023-08-31T14:16:17;4.63;;;2.13;;
4831;SDS011;2430;51.322;7.864;2023-08-31T14:18:44;2.77;;;1.70;;
4831;SDS011;2430;51.322;7.864;2023-08-31T14:21:14;5.93;;;2.00;;
4831;SDS011;2430;51.322;7.864;2023-08-31T14:23:40;4.00;;;1.80;;
4831;SDS011;2430;51.322;7.864;2023-08-31T14:26:08;5.70;;;2.13;;
4831;SDS011;2430;51.322;7.864;2023-08-31T14:28:37;2.80;;;2.17;;
4831;SDS011;2430;51.322;7.864;2023-08-31T14:31:03;3.93;;;2.70;;
4831;SDS011;2430;51.322;7.864;2023-08-31T14:33:30;6.43;;;2.23;;
4831;SDS011;2430;51.322;7.864;2023-08-31T14:35:56;3.67;;;2.07;;
4831;SDS011;2430;51.322;7.864;2023-08-31T14:38:22;3.33;;;1.80;;
4831;SDS011;2430;51.322;7.864;2023-08-31T14:40:49;3.00;;;1.70;;
4831;SDS011;2430;51.322;7.864;2023-08-31T14:43:16;6.13;;;2.57;;
4831;SDS011;2430;51.322;7.864;2023-08-31T14:45:43;6.40;;;1.83;;
4831;SDS011;2430;51.322;7.864;2023-08-31T14:48:09;5.33;;;2.20;;
4831;SDS011;2430;51.322;7.864;2023-08-31T14:50:35;4.20;;;2.20;;
4831;SDS011;2430;51.322;7.864;2023-08-31T14:53:01;4.77;;;2.30;;
4831;SDS011;2430;51.322;7.864;2023-08-31T14:55:28;2.47;;;2.20;;
4831;SDS011;2430;51.322;7.864;2023-08-31T14:57:54;5.53;;;2.40;;
4831;SDS011;2430;51.322;7.864;2023-08-31T15:00:22;4.27;;;2.13;;
4831;SDS011;2430;51.322;7.864;2023-08-31T15:02:48;4.57;;;1.87;;
4831;SDS011;2430;51.322;7.864;2023-08-31T15:05:14;6.40;;;2.37;;
4831;SDS011;2430;51.322;7.864;2023-08-31T15:07:40;8.03;;;2.87;;